Washington, DC (20029)

6:33 AM EDT on October 02, 2014 (GMT -0400)
Pgeng5 | Change Station
CLOSE
Current Station
Personal Weather Station
Location: Capitol Heights, MD
Elevation: 0 ft
Nearby Weather Stations

Elev 0 ft 38.88 °N, 76.91 °W | Updated 15 seconds ago

Mostly Cloudy
Mostly Cloudy
59.4 °F
Feels Like 59.4 °F
N
0.0
Wind Variable Wind from WSW
Gusts 0.0 mph

Today
High -- | Low -- °F
--% Chance of Precip.
Yesterday
High -- | Low -- °F
Precip. -- in
7:04 AM 6:48 PM
First Quarter, 57% visible
Pressure 30.11 in
Visibility 6.0 miles
Clouds Mostly Cloudy 1400 ft
Overcast 2300 ft
Dew Point 58 °F
Humidity 96%
Rainfall 0.00 in
Snow Depth Not available.
UV 0 out of 12
Pollen 2.90 out of 12
Air Quality Not available.
Flu Activity Not available.
SPECI KDCA 021012Z 05004KT 6SM BR BKN014 OVC023 17/15 A3011 RMK AO2

More Conditions Fewer Conditions

Pressure 30.11 in
Visibility 6.0 miles
Clouds Mostly Cloudy 1400 ft
Overcast 2300 ft
Dew Point 58 °F
Humidity 96%
Rainfall 0.00 in
Snow Depth Not available.
UV 0 out of 12
Pollen 2.90 out of 12
Air Quality Not available.
Flu Activity Not available.
SPECI KDCA 021012Z 05004KT 6SM BR BKN014 OVC023 17/15 A3011 RMK AO2

More Conditions Fewer Conditions

10-Day Weather Forecast

Almanac

Astronomy

Oct. 02, 2014 Rise Set
Actual Time 7:04 AM EDT 6:48 PM EDT
Civil Twilight 6:38 AM EDT 7:15 PM EDT
Nautical Twilight 6:07 AM EDT 7:46 PM EDT
Astronomical Twilight 5:35 AM EDT 8:17 PM EDT
Moon 2:50 PM EDT 12:22 AM EDT
Length of Visible Light 12h 37m
Length of Day
11h 44m
Tomorrow will be 2m 30s shorter.
First Quarter, 57% of the Moon is Illuminated
Today
First Quarter
Oct 8
Full
Oct 15
Last Quarter
Oct 23
New
Oct 30
First Quarter

Today's Extremes

State Highs State Lows

Community

WunderPhotos

Upload Photos

1,758,210 photos uploaded!

WunderBlogs® & News

Nearby

Snow Depth

Station Depth Elevation
No new snow has been reported.

Earthquake Activity

City Distance Mag. Time & Date
No recent earthquake activity has been reported nearby.
Minimum magnitude displayed is 2.5.

Coastal Water Temperatures

Place Temperature
Washington, DC 71.1 °F
Baltimore, MD 73.9 °F
Solomons Island, MD 72.0 °F

Nearby Weather Stations